KL7GG Weather Reports


Display with metric or nautical units.
time (UTC)temp
F
wind
direction
speed
MPH
gust
MPH
rain 1hr
in
rain 24hr
in
rain mn
in
humidity
%
barometer
mb
20200704121317 53 0 0.0 0.0 0.00 0.00 0.00 84 1015.4
20200704115813 53 0 0.0 0.0 0.00 0.00 0.00 84 1015.4
20200704114309 54 0 0.0 0.0 0.00 0.00 0.00 83 1015.3
20200704112805 55 0 0.0 0.0 0.00 0.00 0.00 82 1015.1
20200704111259 55 0 0.0 0.0 0.00 0.00 0.00 82 1015.2
20200704105755 55 0 0.0 0.0 0.00 0.00 0.00 81 1015.0
20200704104249 56 0 0.0 0.0 0.00 0.00 0.00 81 1015.0
20200704102745 56 0 0.0 0.0 0.00 0.00 0.00 81 1015.0
20200704101241 56 0 0.0 0.0 0.00 0.00 0.00 80 1014.9
20200704095737 57 0 0.0 0.0 0.00 0.00 0.00 80 1014.9
20200704094233 57 0 0.0 0.0 0.00 0.00 0.00 78 1014.8
20200704092729 58 0 0.0 0.0 0.00 0.00 0.00 78 1014.8
20200704091226 59 0 0.0 0.0 0.00 0.00 0.00 76 1014.8
20200704085721 59 0 0.0 0.0 0.00 0.00 0.00 74 1014.6
20200704082711 60 0 0.0 0.0 0.00 0.00 0.00 73 1014.4
20200704081207 61 0 0.0 0.0 0.00 0.00 0.00 72 1014.3
20200704075703 62 0 0.0 0.0 0.00 0.00 0.00 72 1014.2
20200704074159 62 0 0.0 0.0 0.00 0.00 0.00 69 1014.1
20200704072655 64 0 0.0 0.0 0.00 0.00 0.00 68 1014.0
20200704071151 65 0 0.0 0.0 0.00 0.00 0.00 65 1013.9
20200704065647 66 0 0.0 1.0 0.00 0.00 0.00 60 1013.8
20200704064143 68 0 0.0 6.0 0.00 0.00 0.00 58 1013.6
20200704062639 69 0 0.0 5.0 0.00 0.00 0.00 57 1013.6
20200704061135 70 0 0.0 6.0 0.00 0.00 0.00 52 1013.5
20200704054127 71 322 1.0 10.0 0.00 0.00 0.00 50 1013.4
20200704052621 72 332 2.0 7.0 0.00 0.00 0.00 49 1013.2
20200704051114 73 0 0.0 7.0 0.00 0.00 0.00 48 1013.2
20200704044104 75 0 0.0 7.0 0.00 0.00 0.00 43 1013.1
20200704042600 75 0 0.0 8.0 0.00 0.00 0.00 42 1013.1
20200704041056 76 0 0.0 4.0 0.00 0.00 0.00 41 1013.2
20200704035552 76 344 2.0 7.0 0.00 0.00 0.00 43 1013.3
20200704034049 75 0 0.0 7.0 0.00 0.00 0.00 43 1013.4
20200704032542 76 0 0.0 6.0 0.00 0.00 0.00 40 1013.4
20200704025533 77 313 4.0 9.0 0.00 0.00 0.00 41 1013.4
20200704024028 77 285 6.0 13.0 0.00 0.00 0.00 40 1013.4
20200704022524 77 305 7.0 13.0 0.00 0.00 0.00 41 1013.5
20200704021020 77 329 6.0 12.0 0.00 0.00 0.00 39 1013.6
20200704015516 77 298 7.0 12.0 0.00 0.00 0.00 40 1013.7
20200704014012 77 331 1.0 11.0 0.00 0.00 0.00 39 1013.9
20200704012508 77 330 8.0 13.0 0.00 0.00 0.00 38 1014.0
20200704011003 76 292 7.0 14.0 0.00 0.00 0.00 39 1013.9
20200704005458 76 298 2.0 14.0 0.00 0.00 0.00 39 1013.9
20200704003952 76 312 6.0 14.0 0.00 0.00 0.00 39 1013.9
20200704002448 76 298 7.0 15.0 0.00 0.00 0.00 39 1013.9
20200704000944 77 302 5.0 15.0 0.00 0.00 0.00 39 1013.9
20200703235440 76 290 6.0 15.0 0.00 0.00 0.00 40 1013.9
20200703233937 76 343 3.0 10.0 0.00 0.00 0.00 38 1014.0
20200703232430 75 332 6.0 12.0 0.00 0.00 0.00 39 1014.0
20200703230927 75 284 5.0 9.0 0.00 0.00 0.00 39 1014.0
20200703225420 75 288 3.0 10.0 0.00 0.00 0.00 41 1014.0
20200703223917 74 330 7.0 17.0 0.00 0.00 0.00 39 1014.2
20200703222412 73 293 8.0 18.0 0.00 0.00 0.00 41 1014.2
20200703220908 73 307 7.0 16.0 0.00 0.00 0.00 41 1014.3
20200703215402 73 309 7.0 12.0 0.00 0.00 0.00 44 1014.3
20200703212354 72 297 7.0 12.0 0.00 0.00 0.00 45 1014.4
20200703210848 72 337 3.0 14.0 0.00 0.00 0.00 43 1014.6
20200703205345 71 283 7.0 14.0 0.00 0.00 0.00 47 1014.8
20200703203841 71 313 2.0 12.0 0.00 0.00 0.00 50 1014.9
20200703202334 70 313 7.0 12.0 0.00 0.00 0.00 48 1014.9
20200703200830 69 321 7.0 12.0 0.00 0.00 0.00 51 1015.0
20200703195326 70 334 4.0 11.0 0.00 0.00 0.00 52 1015.0
20200703193822 70 311 4.0 16.0 0.00 0.00 0.00 52 1015.0
20200703192316 70 291 3.0 11.0 0.00 0.00 0.00 55 1015.1
20200703190811 69 332 3.0 10.0 0.00 0.00 0.00 48 1015.3
20200703185306 70 0 0.0 5.0 0.00 0.00 0.00 48 1015.3
20200703183800 69 0 0.0 1.0 0.00 0.00 0.00 50 1015.5
20200703182256 68 0 0.0 2.0 0.00 0.00 0.00 53 1015.5
20200703180752 67 0 0.0 1.0 0.00 0.00 0.00 55 1015.5
20200703175246 66 0 0.0 3.0 0.00 0.00 0.00 59 1015.5
20200703173740 65 0 0.0 1.0 0.00 0.00 0.00 63 1015.6
20200703172236 64 0 0.0 2.0 0.00 0.00 0.00 61 1015.6
20200703170730 63 0 0.0 1.0 0.00 0.00 0.00 62 1015.6
20200703165226 60 0 0.0 0.0 0.00 0.00 0.00 73 1015.7
20200703163722 56 0 0.0 1.0 0.00 0.00 0.00 80 1015.8
20200703162218 53 0 0.0 0.0 0.00 0.00 0.00 89 1015.9
20200703160714 52 0 0.0 0.0 0.00 0.00 0.00 89 1016.1
20200703155210 51 0 0.0 1.0 0.00 0.00 0.00 90 1016.1
20200703153706 51 0 0.0 0.0 0.00 0.00 0.00 91 1016.0
20200703152201 50 0 0.0 0.0 0.00 0.00 0.00 89 1016.0
20200703145152 50 0 0.0 0.0 0.00 0.00 0.00 88 1016.1
20200703143649 50 0 0.0 0.0 0.00 0.00 0.00 89 1016.1
20200703142142 50 0 0.0 0.0 0.00 0.00 0.00 89 1016.1
20200703140638 50 0 0.0 0.0 0.00 0.00 0.00 89 1016.2
20200703135134 49 0 0.0 1.0 0.00 0.00 0.00 89 1016.2
20200703133630 49 0 0.0 0.0 0.00 0.00 0.00 88 1016.1
20200703132124 49 0 0.0 0.0 0.00 0.00 0.00 88 1016.2
20200703130621 50 0 0.0 0.0 0.00 0.00 0.00 88 1016.1
20200703125116 50 0 0.0 0.0 0.00 0.00 0.00 87 1016.2
20200703123610 51 0 0.0 0.0 0.00 0.00 0.00 86 1016.1